createdAt,value
2019-02-17T00:02:36.005Z,3.97
2019-02-17T00:05:26.119Z,4.93
2019-02-17T00:08:14.173Z,5.30
2019-02-17T00:11:04.432Z,6.27
2019-02-17T00:13:52.560Z,6.57
2019-02-17T00:16:40.806Z,7.33
2019-02-17T00:19:28.709Z,7.17
2019-02-17T00:22:16.724Z,6.87
2019-02-17T00:25:04.701Z,5.87
2019-02-17T00:27:53.436Z,5.27
2019-02-17T00:30:41.656Z,5.00
2019-02-17T00:33:29.848Z,4.03
2019-02-17T00:36:17.643Z,4.03
2019-02-17T00:39:06.735Z,4.03
2019-02-17T00:41:55.000Z,4.63
2019-02-17T00:44:43.360Z,3.50
2019-02-17T00:47:30.974Z,3.13
2019-02-17T00:50:19.083Z,2.50
2019-02-17T00:53:06.950Z,3.37
2019-02-17T00:55:54.904Z,3.20
2019-02-17T00:58:43.358Z,3.27
2019-02-17T01:01:31.148Z,2.90
2019-02-17T01:04:18.762Z,2.90
2019-02-17T01:07:06.863Z,3.07
2019-02-17T01:09:54.726Z,2.90
2019-02-17T01:12:43.018Z,3.20
2019-02-17T01:15:30.826Z,2.90
2019-02-17T01:18:18.500Z,2.90
2019-02-17T01:21:06.294Z,3.00
2019-02-17T01:23:54.100Z,3.20
2019-02-17T01:26:42.341Z,3.40
2019-02-17T01:29:30.361Z,3.17
2019-02-17T01:32:18.633Z,3.40
2019-02-17T01:35:06.734Z,3.63
2019-02-17T01:37:54.311Z,4.23
2019-02-17T01:40:42.745Z,3.73
2019-02-17T01:43:31.020Z,3.60
2019-02-17T01:46:18.827Z,3.00
2019-02-17T01:49:07.122Z,2.97
2019-02-17T01:51:55.086Z,3.37
2019-02-17T01:54:42.984Z,3.43
2019-02-17T01:57:31.193Z,3.27
2019-02-17T02:00:18.842Z,3.87
2019-02-17T02:03:07.028Z,3.30
2019-02-17T02:05:54.882Z,3.33
2019-02-17T02:08:42.831Z,3.57
2019-02-17T02:11:30.640Z,3.60
2019-02-17T02:14:18.767Z,3.50
2019-02-17T02:17:06.915Z,3.70
2019-02-17T02:19:55.199Z,4.07
2019-02-17T02:22:43.401Z,3.93
2019-02-17T02:25:31.641Z,3.60
2019-02-17T02:28:19.611Z,4.27
2019-02-17T02:31:07.459Z,3.87
2019-02-17T02:33:55.397Z,3.77
2019-02-17T02:36:43.330Z,3.87
2019-02-17T02:39:31.538Z,3.77
2019-02-17T02:42:19.355Z,3.67
2019-02-17T02:45:08.153Z,3.70
2019-02-17T02:47:56.288Z,3.73
2019-02-17T02:50:44.248Z,3.33
2019-02-17T02:53:32.129Z,4.10
2019-02-17T02:56:19.984Z,3.40
2019-02-17T02:59:08.236Z,3.73
2019-02-17T03:01:56.615Z,3.83
2019-02-17T03:04:44.390Z,3.50
2019-02-17T03:07:32.555Z,3.70
2019-02-17T03:10:20.376Z,3.47
2019-02-17T03:13:08.949Z,3.30
2019-02-17T03:15:56.747Z,3.60
2019-02-17T03:18:44.664Z,3.57
2019-02-17T03:21:32.533Z,3.77
2019-02-17T03:24:20.930Z,4.00
2019-02-17T03:27:08.906Z,3.40
2019-02-17T03:30:04.437Z,3.60
2019-02-17T03:32:45.773Z,3.93
2019-02-17T03:35:33.815Z,3.53
2019-02-17T03:38:21.612Z,3.63
2019-02-17T03:41:09.880Z,3.50
2019-02-17T03:43:57.817Z,3.67
2019-02-17T03:46:45.705Z,3.50
2019-02-17T03:49:33.536Z,3.87
2019-02-17T03:52:21.482Z,3.63
2019-02-17T03:55:09.680Z,3.90
2019-02-17T03:57:57.661Z,4.47
2019-02-17T04:00:45.846Z,3.70
2019-02-17T04:03:33.798Z,3.57
2019-02-17T04:06:21.629Z,3.80
2019-02-17T04:09:09.922Z,4.07
2019-02-17T04:11:57.998Z,3.20
2019-02-17T04:14:45.820Z,2.83
2019-02-17T04:17:33.670Z,3.47
2019-02-17T04:20:21.528Z,3.10
2019-02-17T04:23:09.185Z,3.10
2019-02-17T04:25:57.088Z,3.73
2019-02-17T04:28:45.096Z,3.33
2019-02-17T04:31:33.040Z,3.10
2019-02-17T04:34:20.920Z,3.07
2019-02-17T04:37:08.787Z,2.93
2019-02-17T04:39:56.855Z,3.20
2019-02-17T04:42:44.747Z,3.13
2019-02-17T04:45:33.210Z,3.50
2019-02-17T04:48:21.157Z,3.00
2019-02-17T04:51:09.201Z,3.27
2019-02-17T04:53:57.529Z,3.73
2019-02-17T04:56:46.941Z,3.60
2019-02-17T04:59:35.194Z,3.17
2019-02-17T05:02:23.132Z,3.00
2019-02-17T05:05:10.674Z,2.50
2019-02-17T05:07:59.245Z,2.90
2019-02-17T05:10:47.066Z,2.83
2019-02-17T05:13:35.206Z,2.77
2019-02-17T05:16:22.705Z,2.63
2019-02-17T05:19:10.974Z,2.47
2019-02-17T05:21:59.242Z,2.53
2019-02-17T05:24:47.365Z,2.50
2019-02-17T05:27:35.251Z,2.70
2019-02-17T05:30:23.366Z,2.53
2019-02-17T05:33:11.297Z,2.50
2019-02-17T05:35:59.284Z,2.37
2019-02-17T05:38:47.090Z,2.90
2019-02-17T05:41:35.248Z,2.90
2019-02-17T05:44:23.433Z,2.70
2019-02-17T05:47:11.403Z,2.60
2019-02-17T05:49:58.883Z,2.87
2019-02-17T05:52:47.150Z,3.10
2019-02-17T05:55:35.227Z,2.77
2019-02-17T05:58:23.389Z,3.30
2019-02-17T06:01:11.273Z,3.53
2019-02-17T06:03:59.121Z,4.07
2019-02-17T06:06:47.124Z,5.30
2019-02-17T06:09:35.204Z,4.50
2019-02-17T06:12:23.230Z,4.90
2019-02-17T06:15:11.490Z,4.60
2019-02-17T06:17:59.814Z,5.73
2019-02-17T06:20:47.304Z,4.40
2019-02-17T06:23:35.213Z,4.70
2019-02-17T06:26:23.200Z,4.33
2019-02-17T06:29:11.197Z,4.23
2019-02-17T06:31:59.273Z,3.20
2019-02-17T06:34:47.254Z,2.93
2019-02-17T06:37:35.101Z,2.43
2019-02-17T06:40:23.219Z,2.50
2019-02-17T06:43:11.320Z,2.60
2019-02-17T06:45:59.430Z,2.50
2019-02-17T06:48:47.294Z,2.27
2019-02-17T06:51:35.770Z,2.33
2019-02-17T06:54:23.949Z,2.20
2019-02-17T06:57:16.271Z,2.43
2019-02-17T07:00:18.542Z,2.10
2019-02-17T07:03:06.606Z,2.13
2019-02-17T07:06:17.423Z,1.90
2019-02-17T07:09:06.570Z,2.20
2019-02-17T07:11:56.784Z,2.20
2019-02-17T07:14:43.762Z,1.80
2019-02-17T07:17:31.939Z,1.97
2019-02-17T07:20:19.899Z,1.83
2019-02-17T07:23:08.533Z,2.23
2019-02-17T07:25:56.618Z,1.80
2019-02-17T07:28:44.677Z,2.67
2019-02-17T07:31:35.277Z,1.93
2019-02-17T07:34:22.193Z,2.10
2019-02-17T07:37:10.637Z,1.97
2019-02-17T07:39:58.348Z,2.20
2019-02-17T07:42:46.263Z,2.40
2019-02-17T07:45:34.146Z,3.23
2019-02-17T07:48:22.272Z,2.63
2019-02-17T07:51:10.074Z,2.60
2019-02-17T07:53:57.960Z,3.70
2019-02-17T07:56:45.869Z,3.43
2019-02-17T07:59:33.815Z,3.80
2019-02-17T08:02:22.088Z,3.80
2019-02-17T08:05:10.354Z,3.67
2019-02-17T08:07:58.513Z,3.77
2019-02-17T08:10:46.972Z,4.00
2019-02-17T08:13:34.507Z,3.50
2019-02-17T08:16:22.700Z,4.90
2019-02-17T08:19:10.891Z,5.73
2019-02-17T08:21:58.950Z,5.87
2019-02-17T08:24:47.244Z,5.93
2019-02-17T08:27:35.248Z,6.00
2019-02-17T08:30:23.426Z,5.70
2019-02-17T08:33:11.758Z,4.40
2019-02-17T08:35:59.643Z,3.87
2019-02-17T08:38:47.730Z,2.97
2019-02-17T08:41:35.498Z,3.30
2019-02-17T08:44:23.510Z,4.10
2019-02-17T08:47:11.271Z,3.90
2019-02-17T08:49:58.854Z,3.67
2019-02-17T08:52:46.778Z,3.40
2019-02-17T08:55:34.770Z,3.33
2019-02-17T08:58:22.682Z,2.30
2019-02-17T09:01:10.282Z,2.27
2019-02-17T09:03:57.791Z,2.50
2019-02-17T09:06:45.851Z,2.23
2019-02-17T09:09:33.923Z,2.23
2019-02-17T09:12:22.081Z,2.20
2019-02-17T09:15:10.778Z,2.77
2019-02-17T09:17:58.734Z,3.70
2019-02-17T09:20:46.898Z,3.90
2019-02-17T09:23:35.038Z,3.60
2019-02-17T09:26:22.849Z,3.30
2019-02-17T09:29:11.685Z,3.30
2019-02-17T09:31:59.650Z,3.33
2019-02-17T09:34:47.508Z,3.23
2019-02-17T09:37:35.191Z,2.60
2019-02-17T09:40:23.418Z,2.77
2019-02-17T09:43:11.369Z,2.50
2019-02-17T09:45:59.506Z,2.00
2019-02-17T09:48:47.709Z,2.20
2019-02-17T09:51:35.592Z,2.20
2019-02-17T09:54:23.674Z,1.60
2019-02-17T09:57:11.826Z,1.40
2019-02-17T09:59:59.912Z,1.10
2019-02-17T10:02:48.069Z,1.27
2019-02-17T10:05:36.060Z,1.40
2019-02-17T10:08:23.906Z,1.43
2019-02-17T10:11:12.028Z,1.50
2019-02-17T10:13:59.941Z,1.80
2019-02-17T10:16:48.351Z,1.80
2019-02-17T10:19:36.711Z,2.23
2019-02-17T10:22:24.789Z,3.23
2019-02-17T10:25:12.815Z,3.07
2019-02-17T10:28:00.917Z,2.43
2019-02-17T10:30:49.160Z,2.90
2019-02-17T10:33:37.543Z,3.53
2019-02-17T10:36:25.906Z,3.73
2019-02-17T10:39:13.719Z,3.80
2019-02-17T10:42:01.224Z,4.33
2019-02-17T10:44:48.870Z,4.00
2019-02-17T10:47:37.171Z,4.00
2019-02-17T10:50:24.914Z,4.47
2019-02-17T10:53:13.117Z,4.47
2019-02-17T10:56:01.058Z,4.60
2019-02-17T10:58:49.225Z,4.80
2019-02-17T11:01:37.338Z,4.80
2019-02-17T11:04:25.585Z,5.17
2019-02-17T11:07:13.690Z,5.87
2019-02-17T11:10:01.731Z,5.60
2019-02-17T11:12:49.912Z,4.73
2019-02-17T11:15:37.879Z,4.63
2019-02-17T11:18:25.998Z,3.80
2019-02-17T11:21:14.267Z,4.87
2019-02-17T11:24:02.123Z,5.20
2019-02-17T11:26:50.208Z,5.23
2019-02-17T11:29:38.359Z,4.47
2019-02-17T11:32:25.967Z,5.23
2019-02-17T11:35:13.863Z,4.90
2019-02-17T11:38:02.300Z,4.67
2019-02-17T11:40:50.214Z,4.87
2019-02-17T11:43:38.510Z,4.20
2019-02-17T11:46:26.588Z,4.47
2019-02-17T11:49:14.618Z,4.60
2019-02-17T11:52:02.819Z,5.63
2019-02-17T11:54:50.646Z,5.07
2019-02-17T11:57:38.818Z,5.50
2019-02-17T12:00:27.490Z,5.90
2019-02-17T12:03:15.321Z,4.83
2019-02-17T12:06:03.281Z,5.30
2019-02-17T12:08:50.869Z,5.57
2019-02-17T12:11:39.074Z,4.80
2019-02-17T12:14:32.562Z,5.97
2019-02-17T12:17:20.506Z,5.27
2019-02-17T12:20:33.298Z,4.30
2019-02-17T12:23:26.220Z,4.90
2019-02-17T12:26:28.272Z,4.90
2019-02-17T12:29:24.266Z,5.50
2019-02-17T12:32:12.360Z,5.70
2019-02-17T12:34:59.933Z,5.70
2019-02-17T12:37:48.084Z,5.97
2019-02-17T12:40:36.097Z,5.80
2019-02-17T12:43:24.205Z,5.80
2019-02-17T12:46:12.518Z,5.67
2019-02-17T12:49:00.626Z,5.73
2019-02-17T12:51:48.766Z,5.87
2019-02-17T12:54:36.950Z,5.70
2019-02-17T12:57:25.180Z,6.10
2019-02-17T13:00:15.957Z,5.70
2019-02-17T13:03:03.960Z,5.57
2019-02-17T13:05:51.657Z,5.17
2019-02-17T13:08:39.722Z,5.10
2019-02-17T13:11:27.789Z,5.40
2019-02-17T13:14:15.924Z,5.23
2019-02-17T13:17:03.957Z,5.30
2019-02-17T13:19:52.357Z,6.07
2019-02-17T13:22:40.182Z,5.73
2019-02-17T13:25:28.320Z,5.33
2019-02-17T13:28:16.301Z,5.60
2019-02-17T13:31:04.377Z,4.47
2019-02-17T13:33:52.566Z,4.50
2019-02-17T13:36:40.645Z,3.77
2019-02-17T13:39:28.551Z,3.87
2019-02-17T13:42:16.736Z,3.70
2019-02-17T13:45:04.245Z,3.00
2019-02-17T13:47:52.169Z,2.83
2019-02-17T13:50:40.353Z,2.87
2019-02-17T13:53:28.428Z,2.47
2019-02-17T13:56:16.644Z,2.57
2019-02-17T13:59:04.160Z,2.60
2019-02-17T14:01:52.413Z,2.67
2019-02-17T14:04:40.833Z,2.77
2019-02-17T14:07:28.610Z,2.50
2019-02-17T14:10:16.442Z,2.63
2019-02-17T14:13:04.320Z,2.43
2019-02-17T14:15:52.306Z,2.20
2019-02-17T14:18:40.112Z,2.80
2019-02-17T14:21:28.078Z,2.20
2019-02-17T14:24:16.220Z,2.23
2019-02-17T14:27:04.224Z,2.00
2019-02-17T14:29:52.006Z,1.47
2019-02-17T14:32:39.745Z,1.47
2019-02-17T14:35:27.637Z,1.30
2019-02-17T14:38:15.831Z,1.60
2019-02-17T14:41:03.605Z,2.03
2019-02-17T14:43:51.467Z,1.90
2019-02-17T14:46:39.103Z,1.90
2019-02-17T14:49:27.416Z,2.10
2019-02-17T14:52:15.634Z,1.90
2019-02-17T14:55:03.629Z,2.10
2019-02-17T14:57:51.570Z,2.13
2019-02-17T15:00:39.637Z,2.10
2019-02-17T15:03:27.684Z,2.60
2019-02-17T15:06:15.687Z,2.23
2019-02-17T15:09:05.035Z,2.17
2019-02-17T15:11:53.072Z,2.10
2019-02-17T15:14:41.480Z,1.97
2019-02-17T15:17:29.618Z,1.57
2019-02-17T15:20:18.037Z,2.40
2019-02-17T15:23:05.641Z,2.13
2019-02-17T15:25:53.876Z,1.70
2019-02-17T15:28:50.595Z,1.80
2019-02-17T15:31:31.332Z,1.70
2019-02-17T15:34:19.105Z,1.30
2019-02-17T15:37:07.415Z,1.60
2019-02-17T15:39:55.303Z,1.43
2019-02-17T15:42:43.653Z,1.40
2019-02-17T15:45:31.411Z,1.70
2019-02-17T15:48:19.367Z,1.27
2019-02-17T15:51:07.639Z,1.30
2019-02-17T15:53:55.634Z,1.60
2019-02-17T15:56:43.489Z,1.50
2019-02-17T15:59:32.153Z,1.50
2019-02-17T16:02:20.394Z,1.90
2019-02-17T16:05:09.122Z,1.97
2019-02-17T16:07:56.998Z,1.93
2019-02-17T16:10:45.288Z,2.03
2019-02-17T16:13:33.693Z,1.73
2019-02-17T16:16:21.335Z,1.70
2019-02-17T16:19:09.368Z,1.80
2019-02-17T16:21:57.486Z,1.77
2019-02-17T16:24:45.910Z,1.73
2019-02-17T16:27:33.844Z,1.80
2019-02-17T16:30:22.119Z,1.70
2019-02-17T16:33:10.288Z,1.90
2019-02-17T16:35:58.304Z,1.67
2019-02-17T16:38:46.140Z,1.70
2019-02-17T16:41:34.085Z,2.10
2019-02-17T16:44:22.287Z,1.87
2019-02-17T16:47:10.551Z,2.20
2019-02-17T16:49:58.630Z,2.30
2019-02-17T16:52:46.756Z,1.80
2019-02-17T16:55:34.698Z,2.13
2019-02-17T16:58:22.954Z,2.00
2019-02-17T17:01:11.196Z,1.70
2019-02-17T17:03:58.740Z,1.83
2019-02-17T17:06:47.054Z,1.83
2019-02-17T17:09:34.731Z,1.70
2019-02-17T17:12:24.825Z,1.80
2019-02-17T17:15:12.724Z,2.10
2019-02-17T17:18:00.915Z,2.13
2019-02-17T17:20:48.760Z,2.20
2019-02-17T17:23:36.499Z,2.00
2019-02-17T17:26:24.382Z,1.90
2019-02-17T17:29:12.467Z,2.00
2019-02-17T17:32:00.421Z,2.20
2019-02-17T17:34:58.400Z,2.70
2019-02-17T17:37:38.576Z,3.60
2019-02-17T17:40:26.411Z,3.17
2019-02-17T17:43:13.999Z,2.70
2019-02-17T17:46:01.720Z,3.00
2019-02-17T17:48:49.786Z,2.90
2019-02-17T17:51:37.728Z,2.93
2019-02-17T17:54:25.285Z,3.00
2019-02-17T17:57:13.547Z,2.90
2019-02-17T18:00:01.155Z,3.50
2019-02-17T18:02:49.358Z,4.20
2019-02-17T18:05:37.479Z,3.67
2019-02-17T18:08:25.418Z,3.50
2019-02-17T18:11:13.210Z,3.30
2019-02-17T18:14:01.174Z,3.23
2019-02-17T18:16:49.450Z,3.30
2019-02-17T18:19:37.339Z,3.03
2019-02-17T18:22:25.025Z,2.73
2019-02-17T18:25:12.918Z,3.13
2019-02-17T18:28:01.179Z,2.67
2019-02-17T18:30:49.453Z,3.03
2019-02-17T18:33:37.395Z,2.80
2019-02-17T18:36:25.682Z,2.60
2019-02-17T18:39:13.580Z,2.70
2019-02-17T18:42:01.699Z,3.07
2019-02-17T18:44:49.668Z,3.47
2019-02-17T18:47:37.800Z,2.70
2019-02-17T18:50:25.592Z,3.10
2019-02-17T18:53:15.348Z,2.80
2019-02-17T18:56:03.119Z,2.67
2019-02-17T18:58:51.699Z,2.80
2019-02-17T19:01:39.360Z,2.60
2019-02-17T19:04:27.190Z,2.57
2019-02-17T19:07:15.065Z,2.77
2019-02-17T19:10:02.559Z,2.53
2019-02-17T19:12:50.885Z,2.53
2019-02-17T19:15:38.819Z,2.67
2019-02-17T19:18:27.308Z,2.30
2019-02-17T19:21:15.653Z,2.97
2019-02-17T19:24:03.945Z,3.20
2019-02-17T19:26:51.929Z,2.93
2019-02-17T19:29:40.235Z,2.23
2019-02-17T19:32:27.861Z,2.43
2019-02-17T19:35:16.099Z,2.80
2019-02-17T19:38:04.414Z,2.67
2019-02-17T19:40:52.143Z,2.60
2019-02-17T19:43:39.712Z,2.70
2019-02-17T19:46:27.520Z,3.87
2019-02-17T19:49:15.357Z,3.90
2019-02-17T19:52:03.809Z,3.60
2019-02-17T19:54:51.999Z,3.70
2019-02-17T19:57:40.321Z,3.67
2019-02-17T20:00:28.215Z,3.43
2019-02-17T20:03:34.737Z,3.90
2019-02-17T20:06:24.653Z,3.70
2019-02-17T20:09:19.669Z,3.53
2019-02-17T20:12:07.979Z,3.60
2019-02-17T20:14:56.210Z,3.27
2019-02-17T20:17:45.264Z,3.30
2019-02-17T20:20:33.633Z,3.57
2019-02-17T20:23:21.890Z,3.20
2019-02-17T20:26:10.639Z,3.20
2019-02-17T20:28:59.124Z,2.80
2019-02-17T20:31:47.057Z,3.07
2019-02-17T20:34:35.219Z,3.60
2019-02-17T20:37:25.325Z,3.90
2019-02-17T20:40:12.765Z,3.10
2019-02-17T20:43:01.497Z,3.20
2019-02-17T20:45:49.341Z,3.30
2019-02-17T20:48:37.153Z,3.00
2019-02-17T20:51:24.918Z,2.87
2019-02-17T20:54:12.772Z,3.00
2019-02-17T20:57:00.591Z,2.93
2019-02-17T20:59:48.426Z,3.57
2019-02-17T21:02:36.599Z,3.17
2019-02-17T21:05:24.683Z,3.63
2019-02-17T21:08:12.618Z,3.10
2019-02-17T21:11:01.100Z,3.00
2019-02-17T21:13:49.344Z,3.17
2019-02-17T21:16:37.173Z,3.30
2019-02-17T21:19:25.037Z,3.17
2019-02-17T21:22:13.039Z,3.37
2019-02-17T21:25:01.394Z,3.50
2019-02-17T21:27:49.003Z,3.50
2019-02-17T21:30:37.118Z,3.30
2019-02-17T21:33:24.972Z,3.60
2019-02-17T21:36:22.569Z,2.77
2019-02-17T21:39:03.474Z,3.50
2019-02-17T21:41:51.544Z,3.40
2019-02-17T21:44:39.479Z,2.63
2019-02-17T21:47:27.548Z,3.40
2019-02-17T21:50:15.721Z,3.57
2019-02-17T21:53:04.122Z,3.13
2019-02-17T21:55:51.967Z,3.13
2019-02-17T21:58:40.031Z,3.73
2019-02-17T22:01:28.220Z,3.73
2019-02-17T22:04:16.452Z,3.40
2019-02-17T22:07:04.321Z,3.07
2019-02-17T22:09:52.367Z,3.57
2019-02-17T22:12:40.686Z,3.73
2019-02-17T22:15:28.887Z,3.20
2019-02-17T22:18:16.787Z,3.23
2019-02-17T22:21:05.341Z,3.30
2019-02-17T22:23:53.614Z,3.37
2019-02-17T22:26:41.883Z,3.40
2019-02-17T22:29:30.046Z,2.97
2019-02-17T22:32:18.074Z,2.90
2019-02-17T22:35:06.820Z,2.90
2019-02-17T22:37:55.210Z,3.13
2019-02-17T22:40:43.410Z,2.97
2019-02-17T22:43:31.561Z,2.83
2019-02-17T22:46:19.234Z,2.97
2019-02-17T22:49:07.564Z,2.80
2019-02-17T22:51:55.735Z,2.97
2019-02-17T22:54:43.618Z,3.17
2019-02-17T22:57:31.756Z,2.93
2019-02-17T23:00:30.774Z,3.00
2019-02-17T23:03:18.656Z,2.90
2019-02-17T23:06:06.878Z,2.67
2019-02-17T23:08:55.289Z,2.73
2019-02-17T23:11:44.230Z,2.80
2019-02-17T23:14:32.186Z,2.63
2019-02-17T23:17:19.974Z,2.60
2019-02-17T23:20:08.480Z,2.73
2019-02-17T23:22:56.846Z,2.80
2019-02-17T23:25:44.910Z,2.43
2019-02-17T23:28:32.791Z,2.67
2019-02-17T23:31:20.381Z,2.90
2019-02-17T23:34:08.465Z,2.70
2019-02-17T23:37:03.727Z,2.80
2019-02-17T23:39:46.042Z,2.77
2019-02-17T23:42:33.544Z,2.27
2019-02-17T23:45:21.981Z,2.43
2019-02-17T23:48:10.280Z,2.50
2019-02-17T23:50:58.408Z,2.57
2019-02-17T23:53:46.341Z,2.30
2019-02-17T23:56:34.587Z,2.50
2019-02-17T23:59:22.594Z,3.77
